createdAt,value
2023-03-04T00:04:46.418Z,22.50
2023-03-04T00:09:51.338Z,24.67
2023-03-04T00:14:55.817Z,24.53
2023-03-04T00:19:59.251Z,21.33
2023-03-04T00:25:02.330Z,21.83
2023-03-04T00:30:08.609Z,20.87
2023-03-04T00:35:11.705Z,22.70
2023-03-04T00:40:15.223Z,19.70
2023-03-04T00:45:19.877Z,25.17
2023-03-04T00:50:22.963Z,21.63
2023-03-04T00:55:26.084Z,19.03
2023-03-04T01:00:30.676Z,25.70
2023-03-04T01:05:35.944Z,22.70
2023-03-04T01:10:39.148Z,22.63
2023-03-04T01:15:44.255Z,23.00
2023-03-04T01:20:47.391Z,23.07
2023-03-04T01:25:50.568Z,19.97
2023-03-04T01:30:55.246Z,21.43
2023-03-04T01:35:58.638Z,17.73
2023-03-04T01:41:01.911Z,24.70
2023-03-04T01:46:06.905Z,23.63
2023-03-04T01:51:14.697Z,22.67
2023-03-04T01:56:21.402Z,23.53
2023-03-04T02:01:25.990Z,22.33
2023-03-04T02:06:29.329Z,23.27
2023-03-04T02:11:32.905Z,21.97
2023-03-04T02:16:37.494Z,26.00
2023-03-04T02:21:40.647Z,28.17
2023-03-04T02:26:47.085Z,28.50
2023-03-04T02:31:52.227Z,26.47
2023-03-04T02:36:56.267Z,24.30
2023-03-04T02:42:01.399Z,24.50
2023-03-04T02:47:09.168Z,20.00
2023-03-04T02:52:15.767Z,21.47
2023-03-04T02:57:20.410Z,23.20
2023-03-04T03:02:23.759Z,22.03
2023-03-04T03:07:27.016Z,20.63
2023-03-04T03:12:31.512Z,21.33
2023-03-04T03:17:34.714Z,20.40
2023-03-04T03:22:37.913Z,21.63
2023-03-04T03:27:42.693Z,23.37
2023-03-04T03:32:46.003Z,24.27
2023-03-04T03:37:50.086Z,24.10
2023-03-04T03:42:54.601Z,18.97
2023-03-04T03:47:57.748Z,22.33
2023-03-04T03:53:01.124Z,22.33
2023-03-04T03:58:05.857Z,22.20
2023-03-04T04:03:09.106Z,22.27
2023-03-04T04:08:14.438Z,25.17
2023-03-04T04:13:19.043Z,22.43
2023-03-04T04:18:22.191Z,23.20
2023-03-04T04:23:25.458Z,22.77
2023-03-04T04:28:30.100Z,20.97
2023-03-04T04:33:33.201Z,22.20
2023-03-04T04:38:36.260Z,21.10
2023-03-04T04:43:40.761Z,21.33
2023-03-04T04:48:43.982Z,22.97
2023-03-04T04:53:47.277Z,22.53
2023-03-04T04:58:51.796Z,23.00
2023-03-04T05:03:57.912Z,18.67
2023-03-04T05:09:04.534Z,20.80
2023-03-04T05:14:09.050Z,22.83
2023-03-04T05:19:12.443Z,21.90
2023-03-04T05:24:15.797Z,21.43
2023-03-04T05:29:20.282Z,20.60
2023-03-04T05:34:23.503Z,23.57
2023-03-04T05:39:26.786Z,23.50
2023-03-04T05:44:31.277Z,21.20
2023-03-04T05:49:34.411Z,24.10
2023-03-04T05:54:37.862Z,21.07
2023-03-04T05:59:42.360Z,24.33
2023-03-04T06:04:45.569Z,22.00
2023-03-04T06:09:48.764Z,23.57
2023-03-04T06:14:53.800Z,23.53
2023-03-04T06:19:57.233Z,22.53
2023-03-04T06:25:00.345Z,22.57
2023-03-04T06:30:06.117Z,21.07
2023-03-04T06:35:10.002Z,23.37
2023-03-04T06:40:14.214Z,22.67
2023-03-04T06:45:18.955Z,21.87
2023-03-04T06:50:22.216Z,21.87
2023-03-04T06:55:25.739Z,24.03
2023-03-04T07:00:30.238Z,26.33
2023-03-04T07:05:33.389Z,33.27
2023-03-04T07:10:39.443Z,24.63
2023-03-04T07:15:43.948Z,24.57
2023-03-04T07:20:47.345Z,22.13
2023-03-04T07:25:51.343Z,21.37
2023-03-04T07:30:55.862Z,21.03
2023-03-04T07:36:00.900Z,23.60
2023-03-04T07:41:04.088Z,21.00
2023-03-04T07:46:08.948Z,19.10
2023-03-04T07:51:13.985Z,19.30
2023-03-04T07:56:18.967Z,19.47
2023-03-04T08:01:25.382Z,20.43
2023-03-04T08:06:29.852Z,17.30
2023-03-04T08:11:33.682Z,16.73
2023-03-04T08:16:38.121Z,14.90
2023-03-04T08:21:41.244Z,15.00
2023-03-04T08:26:46.975Z,14.50
2023-03-04T08:31:53.302Z,19.27
2023-03-04T08:36:56.571Z,18.90
2023-03-04T08:41:59.680Z,16.30
2023-03-04T08:47:04.143Z,12.80
2023-03-04T08:52:07.344Z,13.80
2023-03-04T08:57:10.420Z,11.13
2023-03-04T09:02:14.930Z,11.17
2023-03-04T09:07:18.104Z,10.10
2023-03-04T09:12:21.195Z,11.07
2023-03-04T09:17:25.683Z,11.13
2023-03-04T09:22:28.784Z,12.77
2023-03-04T09:27:31.912Z,11.13
2023-03-04T09:32:36.451Z,9.13
2023-03-04T09:37:41.512Z,12.83
2023-03-04T09:42:49.399Z,11.90
2023-03-04T09:47:56.258Z,10.33
2023-03-04T09:53:12.774Z,10.73
2023-03-04T09:58:29.461Z,10.37
2023-03-04T10:03:44.673Z,11.67
2023-03-04T10:08:54.728Z,11.37
2023-03-04T10:14:05.431Z,10.33
2023-03-04T10:19:27.057Z,11.60
2023-03-04T10:24:31.437Z,13.27
2023-03-04T10:29:35.392Z,12.33
2023-03-04T10:34:39.921Z,10.00
2023-03-04T10:39:44.835Z,12.30
2023-03-04T10:44:54.375Z,16.60
2023-03-04T10:50:00.541Z,16.60
2023-03-04T10:55:07.979Z,13.07
2023-03-04T11:00:30.046Z,12.60
2023-03-04T11:05:35.844Z,14.33
2023-03-04T11:10:41.940Z,13.60
2023-03-04T11:15:55.553Z,11.80
2023-03-04T11:21:02.167Z,11.50
2023-03-04T11:26:11.497Z,11.97
2023-03-04T11:31:17.795Z,13.23
2023-03-04T11:36:34.108Z,11.90
2023-03-04T11:41:41.703Z,12.67
2023-03-04T11:47:20.058Z,14.67
2023-03-04T11:52:35.981Z,13.50
2023-03-04T11:57:48.433Z,15.43
2023-03-04T12:03:13.447Z,13.60
2023-03-04T12:08:43.768Z,15.37
2023-03-04T12:14:18.025Z,13.47
2023-03-04T12:19:33.019Z,15.80
2023-03-04T12:25:25.708Z,14.27
2023-03-04T12:30:41.923Z,14.40
2023-03-04T12:35:53.638Z,14.83
2023-03-04T12:41:04.330Z,15.63
2023-03-04T12:46:19.167Z,14.10
2023-03-04T12:51:33.479Z,16.50
2023-03-04T12:56:43.877Z,14.20
2023-03-04T13:01:57.361Z,15.33
2023-03-04T13:07:13.199Z,15.23
2023-03-04T13:12:19.728Z,13.57
2023-03-04T13:17:44.400Z,14.10
2023-03-04T13:22:53.413Z,12.90
2023-03-04T13:28:18.690Z,14.57
2023-03-04T13:34:01.128Z,14.57
2023-03-04T13:39:23.518Z,14.00
2023-03-04T13:44:49.053Z,14.17
2023-03-04T13:50:12.186Z,17.40
2023-03-04T13:55:39.569Z,16.03
2023-03-04T14:00:49.859Z,14.03
2023-03-04T14:06:16.634Z,14.83
2023-03-04T14:11:28.962Z,15.33
2023-03-04T14:16:37.992Z,13.93
2023-03-04T14:21:47.153Z,16.33
2023-03-04T14:27:04.508Z,16.23
2023-03-04T14:32:08.723Z,15.53
2023-03-04T14:37:23.862Z,14.43
2023-03-04T14:42:34.955Z,12.83
2023-03-04T14:47:41.517Z,13.67
2023-03-04T14:52:47.081Z,13.33
2023-03-04T14:57:58.482Z,13.20
2023-03-04T15:03:02.970Z,13.47
2023-03-04T15:08:07.618Z,12.13
2023-03-04T15:13:12.121Z,14.97
2023-03-04T15:18:19.415Z,13.70
2023-03-04T15:23:22.537Z,12.33
2023-03-04T15:28:28.406Z,12.10
2023-03-04T15:33:31.554Z,12.77
2023-03-04T15:38:34.663Z,12.13
2023-03-04T15:43:39.214Z,13.37
2023-03-04T15:48:42.307Z,12.73
2023-03-04T15:53:48.984Z,13.10
2023-03-04T15:58:56.219Z,12.87
2023-03-04T16:03:59.786Z,12.53
2023-03-04T16:09:07.093Z,11.63
2023-03-04T16:14:13.014Z,12.87
2023-03-04T16:19:16.100Z,13.27
2023-03-04T16:24:21.959Z,11.73
2023-03-04T16:29:26.476Z,13.97
2023-03-04T16:34:29.517Z,14.30
2023-03-04T16:39:32.686Z,13.40
2023-03-04T16:44:37.151Z,13.57
2023-03-04T16:49:40.980Z,11.93
2023-03-04T16:54:44.088Z,12.93
2023-03-04T16:59:49.064Z,12.10
2023-03-04T17:04:52.429Z,13.43
2023-03-04T17:09:55.487Z,12.83
2023-03-04T17:14:59.935Z,14.63
2023-03-04T17:20:06.039Z,13.87
2023-03-04T17:25:09.960Z,13.63
2023-03-04T17:30:15.464Z,13.73
2023-03-04T17:35:18.672Z,11.27
2023-03-04T17:40:21.897Z,13.73
2023-03-04T17:45:26.360Z,12.17
2023-03-04T17:50:29.469Z,12.57
2023-03-04T17:55:32.783Z,11.97
2023-03-04T18:00:37.327Z,15.23
2023-03-04T18:05:40.675Z,12.07
2023-03-04T18:10:43.889Z,11.80
2023-03-04T18:15:50.344Z,9.90
2023-03-04T18:20:59.624Z,11.03
2023-03-04T18:26:04.390Z,11.17
2023-03-04T18:31:10.447Z,12.13
2023-03-04T18:36:13.914Z,14.97
2023-03-04T18:41:17.523Z,11.33
2023-03-04T18:46:34.246Z,12.90
2023-03-04T18:51:37.716Z,11.70
2023-03-04T18:56:45.057Z,13.20
2023-03-04T19:01:51.302Z,12.07
2023-03-04T19:06:54.565Z,11.43
2023-03-04T19:11:57.659Z,12.13
2023-03-04T19:17:02.164Z,11.93
2023-03-04T19:22:06.870Z,12.23
2023-03-04T19:27:10.062Z,15.10
2023-03-04T19:32:14.644Z,11.30
2023-03-04T19:37:17.944Z,12.80
2023-03-04T19:42:21.300Z,12.30
2023-03-04T19:47:25.850Z,13.73
2023-03-04T19:52:29.006Z,14.87
2023-03-04T19:57:32.380Z,14.40
2023-03-04T20:02:36.905Z,13.73
2023-03-04T20:07:40.367Z,13.90
2023-03-04T20:12:43.471Z,14.13
2023-03-04T20:17:47.981Z,13.03
2023-03-04T20:22:51.061Z,13.17
2023-03-04T20:27:54.247Z,13.40
2023-03-04T20:32:59.004Z,14.00
2023-03-04T20:38:02.371Z,13.23
2023-03-04T20:43:05.828Z,16.27
2023-03-04T20:48:10.322Z,15.73
2023-03-04T20:53:14.006Z,14.20
2023-03-04T20:58:17.088Z,14.77
2023-03-04T21:03:21.588Z,13.90
2023-03-04T21:08:24.770Z,15.00
2023-03-04T21:13:30.556Z,15.23
2023-03-04T21:18:35.546Z,16.13
2023-03-04T21:23:38.838Z,16.67
2023-03-04T21:28:43.544Z,16.23
2023-03-04T21:33:48.707Z,18.90
2023-03-04T21:38:51.795Z,17.60
2023-03-04T21:43:54.869Z,18.27
2023-03-04T21:48:59.395Z,16.97
2023-03-04T21:54:02.753Z,17.27
2023-03-04T21:59:07.810Z,16.50
2023-03-04T22:04:12.286Z,15.97
2023-03-04T22:09:15.799Z,18.97
2023-03-04T22:14:19.029Z,18.67
2023-03-04T22:19:23.616Z,17.50
2023-03-04T22:24:27.732Z,18.43
2023-03-04T22:29:30.848Z,16.53
2023-03-04T22:34:35.334Z,16.23
2023-03-04T22:39:38.438Z,17.50
2023-03-04T22:44:41.553Z,17.97
2023-03-04T22:49:47.494Z,17.83
2023-03-04T22:54:50.561Z,17.00
2023-03-04T22:59:53.849Z,17.23
2023-03-04T23:04:59.487Z,18.73
2023-03-04T23:10:02.653Z,18.90
2023-03-04T23:15:07.526Z,16.57
2023-03-04T23:20:17.612Z,17.77
2023-03-04T23:25:20.901Z,16.83
2023-03-04T23:30:23.991Z,17.53
2023-03-04T23:35:28.574Z,15.90
2023-03-04T23:40:31.726Z,21.03
2023-03-04T23:45:34.837Z,19.80
2023-03-04T23:50:39.340Z,20.80
2023-03-04T23:55:43.143Z,18.73
